Limpo, sem nuvens
Limpo, sem nuvens
Limpo, sem nuvens
Limpo, sem nuvens
Limpo, sem nuvens
Limpo, sem nuvens
Limpo, sem nuvens
(°C)
19°
19°
19°
19°
20°
20°
22°
22°
24°
24°
26°
26°
28°
28°
(°C)
19°
19°
20°
22°
24°
26°
27°
N
NNO
NNO
NO
ONO
N
L
(km/h)
4-6
4-6
4-6
4-6
4-7
3-9
5-11
(mm)
0
0
0
0
0
0
0
(%)
0
0
0
0
0
0
0

Elevação do sol

/ -9.5°
sun-icon
UV 9
06:43
21:21
Quarto Minguante (267°)
02:34
13:28

METAR para Alcantarilla (LERI)

Hora Condições Temperatura/
Ponto de condensação
Vento Visibilidade Tempo Nuvens Pressão Mudança Bruto
VFR 29°C / 10°C 130º variable 100º to 160º 10kt 9700m - Clouds and Visibility OK 1013 No Significant change LERI 291800Z 13010KT 100V160 CAVOK 29/10 Q1013 NOSIG
VFR 30°C / 10°C 130º 11kt 9700m - Clouds and Visibility OK 1013 No Significant change LERI 291730Z 13011KT CAVOK 30/10 Q1013 NOSIG
VFR 30°C / 11°C 130º variable 090º to 160º 11kt 9700m - Clouds and Visibility OK 1013 No Significant change LERI 291700Z 13011KT 090V160 CAVOK 30/11 Q1013 NOSIG
VFR 31°C / 12°C 120º 11kt 9700m - Clouds and Visibility OK 1014 No Significant change LERI 291630Z 12011KT CAVOK 31/12 Q1014 NOSIG
VFR 31°C / 13°C 140º variable 110º to 180º 11kt 9700m - Clouds and Visibility OK 1014 No Significant change LERI 291600Z 14011KT 110V180 CAVOK 31/13 Q1014 NOSIG
VFR 31°C / 12°C 130º variable 080º to 160º 12kt 9700m - Clouds and Visibility OK 1014 No Significant change LERI 291530Z 13012KT 080V160 CAVOK 31/12 Q1014 NOSIG
VFR 31°C / 13°C 120º variable 080º to 150º 11kt 9700m - Clouds and Visibility OK 1014 No Significant change LERI 291500Z 12011KT 080V150 CAVOK 31/13 Q1014 NOSIG
VFR 31°C / 12°C 130º variable 100º to 170º 10kt 9700m - Clouds and Visibility OK 1015 No Significant change LERI 291430Z 13010KT 100V170 CAVOK 31/12 Q1015 NOSIG
VFR 32°C / 11°C 90º 12kt 9700m - Clouds and Visibility OK 1015 No Significant change LERI 291400Z 09012KT CAVOK 32/11 Q1015 NOSIG
VFR 31°C / 10°C 90º variable 050º to 120º 11kt 9700m - Clouds and Visibility OK 1015 No Significant change LERI 291330Z 09011KT 050V120 CAVOK 31/10 Q1015 NOSIG
VFR 31°C / 11°C 100º variable 060º to 130º 11kt 9700m - Clouds and Visibility OK 1016 No Significant change LERI 291300Z 10011KT 060V130 CAVOK 31/11 Q1016 NOSIG
VFR 30°C / 10°C 80º variable 030º to 120º 8kt 9700m - Clouds and Visibility OK 1016 No Significant change LERI 291230Z 08008KT 030V120 CAVOK 30/10 Q1016 NOSIG
VFR 30°C / 10°C 90º variable 050º to 140º 8kt 9700m - Clouds and Visibility OK 1016 No Significant change LERI 291200Z 09008KT 050V140 CAVOK 30/10 Q1016 NOSIG
VFR 30°C / 8°C 6kt 9700m - Clouds and Visibility OK 1017 No Significant change LERI 291130Z VRB06KT CAVOK 30/08 Q1017 NOSIG
VFR 29°C / 8°C 100º variable 020º to 160º 6kt 9700m - Clouds and Visibility OK 1017 No Significant change LERI 291100Z 10006KT 020V160 CAVOK 29/08 Q1017 NOSIG
VFR 28°C / 10°C 70º variable 010º to 160º 5kt 9700m - Clouds and Visibility OK 1018 No Significant change LERI 291030Z 07005KT 010V160 CAVOK 28/10 Q1018 NOSIG
VFR 27°C / 11°C 4kt 9700m - Clouds and Visibility OK 1018 No Significant change LERI 291000Z VRB04KT CAVOK 27/11 Q1018 NOSIG
VFR 26°C / 11°C 3kt 9700m - Clouds and Visibility OK 1018 No Significant change LERI 290930Z VRB03KT CAVOK 26/11 Q1018 NOSIG
VFR 24°C / 12°C 2kt 9700m - Clouds and Visibility OK 1018 No Significant change LERI 290900Z VRB02KT CAVOK 24/12 Q1018 NOSIG
VFR 23°C / 11°C 2kt 9700m - Clouds and Visibility OK 1018 No Significant change LERI 290830Z VRB02KT CAVOK 23/11 Q1018 NOSIG
VFR 22°C / 13°C 40º variable 340º to 110º 3kt 9700m - Clouds and Visibility OK 1018 No Significant change LERI 290800Z 04003KT 340V110 CAVOK 22/13 Q1018 NOSIG
VFR 22°C / 14°C 1kt 9700m - Clouds and Visibility OK 1018 No Significant change LERI 290730Z VRB01KT CAVOK 22/14 Q1018 NOSIG
VFR 20°C / 14°C 1kt 9700m - Clouds and Visibility OK 1018 No Significant change LERI 290700Z VRB01KT CAVOK 20/14 Q1018 NOSIG
VFR 19°C / 14°C 1kt 9700m - Clouds and Visibility OK 1018 No Significant change LERI 290630Z VRB01KT CAVOK 19/14 Q1018 NOSIG

VFR

29°C / 10°C

[Mais]
Vento 130º variable 100º to 160º 10kt
Visibilidade 9700m
Tempo -
Nuvens Clouds and Visibility OK
Pressão 1013
Mudança No Significant change
Bruto LERI 291800Z 13010KT 100V160 CAVOK 29/10 Q1013 NOSIG

VFR

30°C / 10°C

[Mais]
Vento 130º 11kt
Visibilidade 9700m
Tempo -
Nuvens Clouds and Visibility OK
Pressão 1013
Mudança No Significant change
Bruto LERI 291730Z 13011KT CAVOK 30/10 Q1013 NOSIG

VFR

30°C / 11°C

[Mais]
Vento 130º variable 090º to 160º 11kt
Visibilidade 9700m
Tempo -
Nuvens Clouds and Visibility OK
Pressão 1013
Mudança No Significant change
Bruto LERI 291700Z 13011KT 090V160 CAVOK 30/11 Q1013 NOSIG

VFR

31°C / 12°C

[Mais]
Vento 120º 11kt
Visibilidade 9700m
Tempo -
Nuvens Clouds and Visibility OK
Pressão 1014
Mudança No Significant change
Bruto LERI 291630Z 12011KT CAVOK 31/12 Q1014 NOSIG

VFR

31°C / 13°C

[Mais]
Vento 140º variable 110º to 180º 11kt
Visibilidade 9700m
Tempo -
Nuvens Clouds and Visibility OK
Pressão 1014
Mudança No Significant change
Bruto LERI 291600Z 14011KT 110V180 CAVOK 31/13 Q1014 NOSIG

VFR

31°C / 12°C

[Mais]
Vento 130º variable 080º to 160º 12kt
Visibilidade 9700m
Tempo -
Nuvens Clouds and Visibility OK
Pressão 1014
Mudança No Significant change
Bruto LERI 291530Z 13012KT 080V160 CAVOK 31/12 Q1014 NOSIG

VFR

31°C / 13°C

[Mais]
Vento 120º variable 080º to 150º 11kt
Visibilidade 9700m
Tempo -
Nuvens Clouds and Visibility OK
Pressão 1014
Mudança No Significant change
Bruto LERI 291500Z 12011KT 080V150 CAVOK 31/13 Q1014 NOSIG

VFR

31°C / 12°C

[Mais]
Vento 130º variable 100º to 170º 10kt
Visibilidade 9700m
Tempo -
Nuvens Clouds and Visibility OK
Pressão 1015
Mudança No Significant change
Bruto LERI 291430Z 13010KT 100V170 CAVOK 31/12 Q1015 NOSIG

VFR

32°C / 11°C

[Mais]
Vento 90º 12kt
Visibilidade 9700m
Tempo -
Nuvens Clouds and Visibility OK
Pressão 1015
Mudança No Significant change
Bruto LERI 291400Z 09012KT CAVOK 32/11 Q1015 NOSIG

VFR

31°C / 10°C

[Mais]
Vento 90º variable 050º to 120º 11kt
Visibilidade 9700m
Tempo -
Nuvens Clouds and Visibility OK
Pressão 1015
Mudança No Significant change
Bruto LERI 291330Z 09011KT 050V120 CAVOK 31/10 Q1015 NOSIG

VFR

31°C / 11°C

[Mais]
Vento 100º variable 060º to 130º 11kt
Visibilidade 9700m
Tempo -
Nuvens Clouds and Visibility OK
Pressão 1016
Mudança No Significant change
Bruto LERI 291300Z 10011KT 060V130 CAVOK 31/11 Q1016 NOSIG

VFR

30°C / 10°C

[Mais]
Vento 80º variable 030º to 120º 8kt
Visibilidade 9700m
Tempo -
Nuvens Clouds and Visibility OK
Pressão 1016
Mudança No Significant change
Bruto LERI 291230Z 08008KT 030V120 CAVOK 30/10 Q1016 NOSIG

VFR

30°C / 10°C

[Mais]
Vento 90º variable 050º to 140º 8kt
Visibilidade 9700m
Tempo -
Nuvens Clouds and Visibility OK
Pressão 1016
Mudança No Significant change
Bruto LERI 291200Z 09008KT 050V140 CAVOK 30/10 Q1016 NOSIG

VFR

30°C / 8°C

[Mais]
Vento 6kt
Visibilidade 9700m
Tempo -
Nuvens Clouds and Visibility OK
Pressão 1017
Mudança No Significant change
Bruto LERI 291130Z VRB06KT CAVOK 30/08 Q1017 NOSIG

VFR

29°C / 8°C

[Mais]
Vento 100º variable 020º to 160º 6kt
Visibilidade 9700m
Tempo -
Nuvens Clouds and Visibility OK
Pressão 1017
Mudança No Significant change
Bruto LERI 291100Z 10006KT 020V160 CAVOK 29/08 Q1017 NOSIG

VFR

28°C / 10°C

[Mais]
Vento 70º variable 010º to 160º 5kt
Visibilidade 9700m
Tempo -
Nuvens Clouds and Visibility OK
Pressão 1018
Mudança No Significant change
Bruto LERI 291030Z 07005KT 010V160 CAVOK 28/10 Q1018 NOSIG

VFR

27°C / 11°C

[Mais]
Vento 4kt
Visibilidade 9700m
Tempo -
Nuvens Clouds and Visibility OK
Pressão 1018
Mudança No Significant change
Bruto LERI 291000Z VRB04KT CAVOK 27/11 Q1018 NOSIG

VFR

26°C / 11°C

[Mais]
Vento 3kt
Visibilidade 9700m
Tempo -
Nuvens Clouds and Visibility OK
Pressão 1018
Mudança No Significant change
Bruto LERI 290930Z VRB03KT CAVOK 26/11 Q1018 NOSIG

VFR

24°C / 12°C

[Mais]
Vento 2kt
Visibilidade 9700m
Tempo -
Nuvens Clouds and Visibility OK
Pressão 1018
Mudança No Significant change
Bruto LERI 290900Z VRB02KT CAVOK 24/12 Q1018 NOSIG

VFR

23°C / 11°C

[Mais]
Vento 2kt
Visibilidade 9700m
Tempo -
Nuvens Clouds and Visibility OK
Pressão 1018
Mudança No Significant change
Bruto LERI 290830Z VRB02KT CAVOK 23/11 Q1018 NOSIG

VFR

22°C / 13°C

[Mais]
Vento 40º variable 340º to 110º 3kt
Visibilidade 9700m
Tempo -
Nuvens Clouds and Visibility OK
Pressão 1018
Mudança No Significant change
Bruto LERI 290800Z 04003KT 340V110 CAVOK 22/13 Q1018 NOSIG

VFR

22°C / 14°C

[Mais]
Vento 1kt
Visibilidade 9700m
Tempo -
Nuvens Clouds and Visibility OK
Pressão 1018
Mudança No Significant change
Bruto LERI 290730Z VRB01KT CAVOK 22/14 Q1018 NOSIG

VFR

20°C / 14°C

[Mais]
Vento 1kt
Visibilidade 9700m
Tempo -
Nuvens Clouds and Visibility OK
Pressão 1018
Mudança No Significant change
Bruto LERI 290700Z VRB01KT CAVOK 20/14 Q1018 NOSIG

VFR

19°C / 14°C

[Mais]
Vento 1kt
Visibilidade 9700m
Tempo -
Nuvens Clouds and Visibility OK
Pressão 1018
Mudança No Significant change
Bruto LERI 290630Z VRB01KT CAVOK 19/14 Q1018 NOSIG

TAF para Alcantarilla (LERI)

From till


Maximum Temperature 35ºC on . Minimum Temperature 16ºC on .
From till Wind 130º 8kt. Visibility 9700m. Nil Significant Cloud.

Bruto: TAF LERI 291700Z 2918/3018 13008KT CAVOK TX35/3015Z TN16/3005Z

Radar e precipitação nowcast para Alcantarilla

Chuvisco
Leve
Moderado
Forte
Muito forte
Granizo

O marcador do lugar é colocado em Alcantarilla. Esta animação mostra o radar de precipitação para o intervalo de tempo selecionado, bem como uma previsão de 2h. As cruzes de cor laranja indicam relâmpagos. Dados fornecidos por nowcast.de (disponível nos EUA, Europa e Austrália). A queda de neve suave ou ligeira pode ser invisível para o radar. A intensidade da precipitação é codificada por cores, variando de turquesa a vermelha.

Imagens atuais de satélite e precipitação para Alcantarilla, Espanha

O marcador de lugar é colocado em Alcantarilla. [Mais]

A imagem de satélite em tempo real combina luz visível durante o dia com radiação infravermelha durante a noite. À noite, a imagem não é escura, pois a radiação infravermelha pode detectar diferenças de temperatura. Infelizmente, nuvens baixas e neblina são difíceis de distinguir das temperaturas do solo e, portanto, podem ser quase invisíveis durante a noite. As imagens de satélite Meteosat para a Europa são atualizadas em tempo real a cada 5 minutos. GOES-16/GOES-17 ( América do Norte e do Sul) e Himawari (Ásia) são atualizadas a cada 10 minutos.

A precipitação é estimada a partir de radares e satélites. As estimativas de precipitação a partir de satélites são menos precisas à noite do que durante o dia.

© 2024 meteoblue, NOAA Satellites GOES-16 and EUMETSAT. Dados de relâmpagos fornecidos por nowcast.

Voltar ao início
×
Olá,
parece que você está usando um bloqueador de anúncios.

A publicidade é essencial para manter o nosso site gratuito com detalhes e precisão únicos.

Por favor approve www.meteoblue.com no seu bloqueador de anúncios ou considere a compra de um dos nossos produtos:

Já tem uma assinatura?
Então por favor login.